Grande Europa — ICGE — position and weather

sailwx.info

Track history (hours):
 
Tides and Currents Weather Stations Pressure Air Temp Water Temp Dewpoint Dewpoint Depression Visibility Wind Speed Wind Dir Waves Ship Positions

Grande Europa

Last reported at 2014-Oct-22 13:27 UTC. Time now 2014-Oct-22 13:46 UTC.
Position N 42°43' E 004°37'.

Length 183 m; draft 8.5 m.

Type: Cargo ship. MMSI: 247206000.

Date/timePositionNaut miles runAvg speedWind from/ knotsBaromVisibWave heightAir tempDewpointWater temp
2014-Oct-22 13:27N 42°43' E 004°37'1616.0
2014-Oct-22 12:28N 42°45' E 004°59'3113.8
2014-Oct-22 10:14N 42°49' E 005°40'2715.0
2014-Oct-22 08:26N 42°53' E 006°17'1416.1
2014-Oct-22 07:33N 42°58' E 006°35'1716.7
2014-Oct-22 06:33N 43°07' E 006°54'1716.8
2014-Oct-22 05:33N 43°17' E 007°12'1717.2
2014-Oct-22 04:33N 43°27' E 007°31'3517.5
2014-Oct-22 02:32N 43°48' E 008°11'1717.7
2014-Oct-22 01:34N 44°03' E 008°24'1716.7
2014-Oct-22 00:33N 44°19' E 008°31'1 0.6
2014-Oct-21 23:32N 44°19' E 008°30'0 0.0
2014-Oct-21 19:32N 44°19' E 008°30'0 0.0
2014-Oct-21 18:23N 44°19' E 008°30'0 0.0
2014-Oct-21 17:08N 44°19' E 008°30'2 3.8
2014-Oct-21 16:34N 44°18' E 008°32'1817.9
2014-Oct-21 15:33N 44°02' E 008°45'1818.4
2014-Oct-21 14:33N 43°47' E 008°59'1818.2
2014-Oct-21 13:33N 43°31' E 009°12'1817.7
2014-Oct-21 12:33N 43°16' E 009°26'1817.6
2014-Oct-21 11:33N 43°01' E 009°38'3817.6
2014-Oct-21 09:24N 42°35' E 010°15'1717.7
2014-Oct-21 08:26N 42°23' E 010°32'  
2014-Oct-18 20:09N 35°52' E 024°02'1118.4
2014-Oct-18 19:32N 35°49' E 024°16'1818.6
2014-Oct-18 18:33N 35°44' E 024°37'1818.1
2014-Oct-18 17:33N 35°40' E 024°59'1818.2
2014-Oct-18 16:33N 35°35' E 025°20'1817.7
2014-Oct-18 15:33N 35°31' E 025°41'1817.7
2014-Oct-18 14:33N 35°29' E 026°03'1817.7
2014-Oct-18 13:33N 35°24' E 026°24'1817.8
2014-Oct-18 12:33N 35°18' E 026°45'1817.7
2014-Oct-18 11:33N 35°15' E 027°06'1818.3
2014-Oct-18 10:33N 35°12' E 027°28'15218.1
2014-Oct-18 02:09N 34°49' E 030°31'8717.8
2014-Oct-17 21:14N 34°36' E 032°16'1218.0
2014-Oct-17 20:33N 34°34' E 032°31'1817.9
2014-Oct-17 19:34N 34°31' E 032°53'1211.6
2014-Oct-17 18:33N 34°39' E 033°03'1 1.2
2014-Oct-17 17:31N 34°39' E 033°01'0 0.0
2014-Oct-17 16:31N 34°39' E 033°01'0 0.0
2014-Oct-17 15:28N 34°39' E 033°01'0 0.0
2014-Oct-17 14:31N 34°39' E 033°01'0 0.0
2014-Oct-17 13:33N 34°39' E 033°01'5 4.9
2014-Oct-17 12:33N 34°35' E 033°05'  
2014-Oct-13 04:32N 36°28' E 026°43'1817.9
2014-Oct-13 03:33N 36°41' E 026°27'2018.6
2014-Oct-13 02:30N 36°57' E 026°14'1818.5
2014-Oct-13 01:33N 37°12' E 026°02'1818.3
2014-Oct-13 00:33N 37°28' E 025°51'1717.5
2014-Oct-12 23:33N 37°45' E 025°49'1917.9
2014-Oct-12 22:29N 38°05' E 025°47'  
Track history (hours):
 
Tides and Currents Weather Stations Pressure Air Temp Water Temp Dewpoint Dewpoint Depression Visibility Wind Speed Wind Dir Waves Ship Positions

Grande Europa

Last reported at 2014-Oct-22 13:27 UTC. Time now 2014-Oct-22 13:46 UTC.
Position N 42°43' E 004°37'.

Length 183 m; draft 8.5 m.

Type: Cargo ship. MMSI: 247206000.

Date/timePositionNaut miles runAvg speedWind from/ knotsBaromVisibWave heightAir tempDewpointWater temp
2014-Oct-22 13:27N 42°43' E 004°37'1616.0
2014-Oct-22 12:28N 42°45' E 004°59'3113.8
2014-Oct-22 10:14N 42°49' E 005°40'2715.0
2014-Oct-22 08:26N 42°53' E 006°17'1416.1
2014-Oct-22 07:33N 42°58' E 006°35'1716.7
2014-Oct-22 06:33N 43°07' E 006°54'1716.8
2014-Oct-22 05:33N 43°17' E 007°12'1717.2
2014-Oct-22 04:33N 43°27' E 007°31'3517.5
2014-Oct-22 02:32N 43°48' E 008°11'1717.7
2014-Oct-22 01:34N 44°03' E 008°24'1716.7
2014-Oct-22 00:33N 44°19' E 008°31'1 0.6
2014-Oct-21 23:32N 44°19' E 008°30'0 0.0
2014-Oct-21 19:32N 44°19' E 008°30'0 0.0
2014-Oct-21 18:23N 44°19' E 008°30'0 0.0
2014-Oct-21 17:08N 44°19' E 008°30'2 3.8
2014-Oct-21 16:34N 44°18' E 008°32'1817.9
2014-Oct-21 15:33N 44°02' E 008°45'1818.4
2014-Oct-21 14:33N 43°47' E 008°59'1818.2
2014-Oct-21 13:33N 43°31' E 009°12'1817.7
2014-Oct-21 12:33N 43°16' E 009°26'1817.6
2014-Oct-21 11:33N 43°01' E 009°38'3817.6
2014-Oct-21 09:24N 42°35' E 010°15'1717.7
2014-Oct-21 08:26N 42°23' E 010°32'  
2014-Oct-18 20:09N 35°52' E 024°02'1118.4
2014-Oct-18 19:32N 35°49' E 024°16'1818.6
2014-Oct-18 18:33N 35°44' E 024°37'1818.1
2014-Oct-18 17:33N 35°40' E 024°59'1818.2
2014-Oct-18 16:33N 35°35' E 025°20'1817.7
2014-Oct-18 15:33N 35°31' E 025°41'1817.7
2014-Oct-18 14:33N 35°29' E 026°03'1817.7
2014-Oct-18 13:33N 35°24' E 026°24'1817.8
2014-Oct-18 12:33N 35°18' E 026°45'1817.7
2014-Oct-18 11:33N 35°15' E 027°06'1818.3
2014-Oct-18 10:33N 35°12' E 027°28'15218.1
2014-Oct-18 02:09N 34°49' E 030°31'8717.8
2014-Oct-17 21:14N 34°36' E 032°16'1218.0
2014-Oct-17 20:33N 34°34' E 032°31'1817.9
2014-Oct-17 19:34N 34°31' E 032°53'1211.6
2014-Oct-17 18:33N 34°39' E 033°03'1 1.2
2014-Oct-17 17:31N 34°39' E 033°01'0 0.0
2014-Oct-17 16:31N 34°39' E 033°01'0 0.0
2014-Oct-17 15:28N 34°39' E 033°01'0 0.0
2014-Oct-17 14:31N 34°39' E 033°01'0 0.0
2014-Oct-17 13:33N 34°39' E 033°01'5 4.9
2014-Oct-17 12:33N 34°35' E 033°05'  
2014-Oct-13 04:32N 36°28' E 026°43'1817.9
2014-Oct-13 03:33N 36°41' E 026°27'2018.6
2014-Oct-13 02:30N 36°57' E 026°14'1818.5
2014-Oct-13 01:33N 37°12' E 026°02'1818.3
2014-Oct-13 00:33N 37°28' E 025°51'1717.5
2014-Oct-12 23:33N 37°45' E 025°49'1917.9
2014-Oct-12 22:29N 38°05' E 025°47'  

Dump ship's entire track history